createdAt,value
2022-09-15T00:00:07.097Z,16.47
2022-09-15T00:02:33.634Z,16.53
2022-09-15T00:05:00.751Z,16.48
2022-09-15T00:07:27.489Z,16.52
2022-09-15T00:09:53.936Z,16.55
2022-09-15T00:12:20.588Z,16.55
2022-09-15T00:14:47.026Z,16.62
2022-09-15T00:17:13.494Z,16.58
2022-09-15T00:19:40.189Z,16.58
2022-09-15T00:22:07.364Z,16.56
2022-09-15T00:24:33.973Z,16.61
2022-09-15T00:27:00.424Z,16.58
2022-09-15T00:29:27.176Z,16.61
2022-09-15T00:31:53.601Z,16.62
2022-09-15T00:34:19.993Z,16.69
2022-09-15T00:36:46.448Z,16.69
2022-09-15T00:39:12.973Z,16.70
2022-09-15T00:41:40.789Z,16.74
2022-09-15T00:44:36.244Z,16.76
2022-09-15T00:47:21.551Z,16.69
2022-09-15T00:49:58.379Z,16.64
2022-09-15T00:52:49.716Z,16.68
2022-09-15T00:55:22.338Z,16.71
2022-09-15T00:57:59.633Z,16.74
2022-09-15T01:00:27.929Z,16.82
2022-09-15T01:02:56.682Z,16.70
2022-09-15T01:05:28.111Z,16.68
2022-09-15T01:08:00.346Z,16.66
2022-09-15T01:10:31.723Z,16.56
2022-09-15T01:13:01.825Z,16.62
2022-09-15T01:15:55.645Z,16.73
2022-09-15T01:18:26.281Z,16.74
2022-09-15T01:21:06.979Z,16.76
2022-09-15T01:24:18.881Z,16.78
2022-09-15T01:27:06.551Z,16.74
2022-09-15T01:29:48.160Z,16.67
2022-09-15T01:32:59.588Z,16.75
2022-09-15T01:35:35.834Z,16.75
2022-09-15T01:38:20.937Z,16.75
2022-09-15T01:40:54.646Z,16.68
2022-09-15T01:43:23.783Z,16.63
2022-09-15T01:45:52.461Z,16.59
2022-09-15T01:48:25.701Z,16.57
2022-09-15T01:50:56.603Z,16.54
2022-09-15T01:53:23.856Z,16.54
2022-09-15T01:56:02.463Z,16.47
2022-09-15T01:58:28.989Z,16.32
2022-09-15T02:01:23.447Z,16.28
2022-09-15T02:03:55.478Z,16.23
2022-09-15T02:06:31.635Z,16.17
2022-09-15T02:09:02.936Z,16.13
2022-09-15T02:11:30.325Z,16.05
2022-09-15T02:14:11.319Z,15.90
2022-09-15T02:16:42.125Z,15.86
2022-09-15T02:19:11.567Z,15.62
2022-09-15T02:22:23.271Z,15.77
2022-09-15T02:25:09.585Z,16.13
2022-09-15T02:27:41.464Z,16.38
2022-09-15T02:30:11.796Z,16.62
2022-09-15T02:32:43.313Z,16.68
2022-09-15T02:35:09.913Z,16.73
2022-09-15T02:37:37.841Z,16.84
2022-09-15T02:40:06.086Z,16.89
2022-09-15T02:42:32.898Z,16.96
2022-09-15T02:45:00.633Z,16.88
2022-09-15T02:47:31.957Z,16.86
2022-09-15T02:49:58.505Z,16.86
2022-09-15T02:52:26.088Z,16.88
2022-09-15T02:54:52.505Z,16.90
2022-09-15T02:57:18.904Z,16.88
2022-09-15T03:00:03.694Z,16.92
2022-09-15T03:02:30.959Z,17.05
2022-09-15T03:04:57.407Z,17.03
2022-09-15T03:07:24.802Z,16.97
2022-09-15T03:09:51.589Z,17.00
2022-09-15T03:12:17.993Z,17.03
2022-09-15T03:14:44.429Z,16.99
2022-09-15T03:17:10.961Z,16.93
2022-09-15T03:19:37.688Z,16.97
2022-09-15T03:22:04.140Z,16.91
2022-09-15T03:24:30.522Z,16.97
2022-09-15T03:26:56.929Z,16.94
2022-09-15T03:29:23.456Z,16.92
2022-09-15T03:31:49.921Z,16.71
2022-09-15T03:34:16.473Z,16.81
2022-09-15T03:36:43.095Z,16.81
2022-09-15T03:39:11.929Z,16.76
2022-09-15T03:41:38.601Z,16.76
2022-09-15T03:44:05.241Z,16.82
2022-09-15T03:46:31.673Z,16.71
2022-09-15T03:48:58.075Z,16.77
2022-09-15T03:51:25.174Z,16.80
2022-09-15T03:53:51.669Z,16.66
2022-09-15T03:56:33.100Z,16.67
2022-09-15T03:59:04.092Z,16.60
2022-09-15T04:01:30.651Z,16.63
2022-09-15T04:03:57.828Z,16.62
2022-09-15T04:06:25.955Z,16.61
2022-09-15T04:08:54.094Z,16.66
2022-09-15T04:11:22.072Z,16.67
2022-09-15T04:13:49.341Z,16.65
2022-09-15T04:16:18.405Z,16.68
2022-09-15T04:18:45.507Z,16.62
2022-09-15T04:21:14.298Z,16.60
2022-09-15T04:23:42.188Z,16.60
2022-09-15T04:26:14.159Z,16.59
2022-09-15T04:28:40.692Z,16.58
2022-09-15T04:31:10.139Z,16.58
2022-09-15T04:33:37.807Z,16.47
2022-09-15T04:36:08.080Z,16.42
2022-09-15T04:38:35.752Z,16.32
2022-09-15T04:41:03.165Z,16.33
2022-09-15T04:43:29.990Z,16.32
2022-09-15T04:45:56.721Z,16.29
2022-09-15T04:48:23.529Z,16.25
2022-09-15T04:50:50.171Z,16.28
2022-09-15T04:53:16.837Z,16.30
2022-09-15T04:55:43.336Z,16.29
2022-09-15T04:58:09.777Z,16.23
2022-09-15T05:00:42.848Z,16.17
2022-09-15T05:03:10.954Z,16.15
2022-09-15T05:05:37.429Z,16.13
2022-09-15T05:08:04.071Z,16.08
2022-09-15T05:10:30.493Z,16.12
2022-09-15T05:12:56.916Z,16.19
2022-09-15T05:15:24.113Z,16.18
2022-09-15T05:17:51.192Z,16.23
2022-09-15T05:20:18.081Z,16.23
2022-09-15T05:22:45.570Z,16.22
2022-09-15T05:25:12.141Z,16.28
2022-09-15T05:27:39.319Z,16.32
2022-09-15T05:30:34.976Z,16.36
2022-09-15T05:32:53.866Z,16.28
2022-09-15T05:35:20.287Z,16.36
2022-09-15T05:37:46.927Z,16.23
2022-09-15T05:40:13.403Z,16.22
2022-09-15T05:42:40.338Z,16.15
2022-09-15T05:45:07.528Z,15.99
2022-09-15T05:47:34.042Z,15.98
2022-09-15T05:50:00.473Z,15.98
2022-09-15T05:52:26.959Z,16.06
2022-09-15T05:54:58.324Z,16.12
2022-09-15T05:57:26.977Z,16.23
2022-09-15T05:59:53.387Z,16.20
2022-09-15T06:02:19.855Z,16.16
2022-09-15T06:04:46.276Z,16.19
2022-09-15T06:07:13.073Z,15.98
2022-09-15T06:09:39.507Z,15.92
2022-09-15T06:12:06.107Z,16.04
2022-09-15T06:14:32.505Z,16.02
2022-09-15T06:16:58.937Z,16.03
2022-09-15T06:19:25.378Z,15.89
2022-09-15T06:21:52.143Z,15.82
2022-09-15T06:24:18.557Z,15.77
2022-09-15T06:26:45.012Z,15.68
2022-09-15T06:29:12.108Z,15.60
2022-09-15T06:31:38.656Z,15.55
2022-09-15T06:34:05.397Z,15.54
2022-09-15T06:36:32.799Z,15.53
2022-09-15T06:38:59.804Z,15.58
2022-09-15T06:41:38.200Z,15.65
2022-09-15T06:44:13.441Z,15.64
2022-09-15T06:46:39.855Z,15.59
2022-09-15T06:49:06.266Z,15.56
2022-09-15T06:51:35.322Z,15.49
2022-09-15T06:54:03.059Z,15.45
2022-09-15T06:56:32.469Z,15.45
2022-09-15T06:59:00.924Z,15.54
2022-09-15T07:01:30.301Z,15.54
2022-09-15T07:03:58.694Z,15.55
2022-09-15T07:06:28.191Z,15.65
2022-09-15T07:08:54.635Z,15.65
2022-09-15T07:11:21.353Z,15.68
2022-09-15T07:13:49.036Z,15.63
2022-09-15T07:16:16.754Z,15.66
2022-09-15T07:18:43.854Z,15.64
2022-09-15T07:21:16.099Z,15.65
2022-09-15T07:23:43.566Z,15.70
2022-09-15T07:26:14.082Z,15.81
2022-09-15T07:28:42.312Z,15.92
2022-09-15T07:31:10.815Z,15.93
2022-09-15T07:33:37.621Z,15.95
2022-09-15T07:36:08.698Z,15.91
2022-09-15T07:38:38.465Z,15.97
2022-09-15T07:41:11.021Z,16.12
2022-09-15T07:43:38.125Z,16.18
2022-09-15T07:46:06.069Z,16.21
2022-09-15T07:48:32.579Z,16.25
2022-09-15T07:50:59.917Z,16.35
2022-09-15T07:53:30.007Z,16.38
2022-09-15T07:55:57.349Z,16.36
2022-09-15T07:58:24.927Z,16.33
2022-09-15T08:00:51.707Z,16.33
2022-09-15T08:03:18.334Z,16.29
2022-09-15T08:05:45.748Z,16.03
2022-09-15T08:08:12.505Z,16.03
2022-09-15T08:10:41.689Z,16.06
2022-09-15T08:13:08.449Z,16.09
2022-09-15T08:15:37.273Z,16.21
2022-09-15T08:18:04.803Z,16.30
2022-09-15T08:20:31.696Z,16.35
2022-09-15T08:22:58.193Z,16.51
2022-09-15T08:25:25.003Z,16.52
2022-09-15T08:27:52.905Z,16.51
2022-09-15T08:30:19.617Z,16.61
2022-09-15T08:32:46.575Z,16.49
2022-09-15T08:35:14.736Z,16.50
2022-09-15T08:37:41.386Z,16.49
2022-09-15T08:40:16.375Z,16.53
2022-09-15T08:42:47.973Z,16.53
2022-09-15T08:45:23.177Z,16.32
2022-09-15T08:47:56.048Z,16.17
2022-09-15T08:50:29.813Z,16.02
2022-09-15T08:53:14.468Z,16.01
2022-09-15T08:55:48.075Z,15.81
2022-09-15T08:58:20.151Z,15.67
2022-09-15T09:00:48.904Z,15.65
2022-09-15T09:03:47.964Z,15.58
2022-09-15T09:06:32.494Z,15.52
2022-09-15T09:09:17.542Z,15.55
2022-09-15T09:12:06.081Z,15.56
2022-09-15T09:14:57.550Z,15.67
2022-09-15T09:18:07.244Z,15.45
2022-09-15T09:20:45.902Z,15.47
2022-09-15T09:23:15.432Z,15.46
2022-09-15T09:25:43.712Z,15.32
2022-09-15T09:28:35.457Z,15.24
2022-09-15T09:31:07.922Z,15.17
2022-09-15T09:33:47.474Z,15.00
2022-09-15T09:36:14.890Z,14.95
2022-09-15T09:38:44.118Z,14.94
2022-09-15T09:41:35.410Z,14.91
2022-09-15T09:44:05.173Z,14.95
2022-09-15T09:46:31.687Z,14.79
2022-09-15T09:49:16.757Z,14.77
2022-09-15T09:52:03.589Z,14.82
2022-09-15T09:54:32.568Z,14.87
2022-09-15T09:57:14.438Z,14.69
2022-09-15T09:59:42.336Z,14.68
2022-09-15T10:02:15.776Z,14.74
2022-09-15T10:04:45.537Z,14.75
2022-09-15T10:07:13.483Z,14.61
2022-09-15T10:09:49.023Z,14.53
2022-09-15T10:12:47.816Z,14.24
2022-09-15T10:15:24.253Z,14.18
2022-09-15T10:17:51.956Z,13.84
2022-09-15T10:20:32.668Z,13.75
2022-09-15T10:23:24.059Z,13.74
2022-09-15T10:26:01.587Z,13.82
2022-09-15T10:28:28.375Z,13.56
2022-09-15T10:31:24.350Z,13.53
2022-09-15T10:33:50.838Z,13.62
2022-09-15T10:36:20.449Z,13.57
2022-09-15T10:39:06.628Z,13.54
2022-09-15T10:41:37.594Z,13.63
2022-09-15T10:44:24.008Z,13.75
2022-09-15T10:47:19.140Z,13.59
2022-09-15T10:49:55.505Z,13.38
2022-09-15T10:52:37.109Z,13.40
2022-09-15T10:55:15.751Z,13.45
2022-09-15T10:58:07.052Z,13.43
2022-09-15T11:00:50.065Z,13.43
2022-09-15T11:03:25.722Z,13.37
2022-09-15T11:06:29.233Z,13.26
2022-09-15T11:09:14.845Z,13.21
2022-09-15T11:11:59.735Z,13.18
2022-09-15T11:14:44.552Z,13.23
2022-09-15T11:17:35.525Z,13.33
2022-09-15T11:20:11.016Z,13.49
2022-09-15T11:22:49.492Z,13.51
2022-09-15T11:25:22.404Z,13.79
2022-09-15T11:27:57.620Z,13.57
2022-09-15T11:30:29.839Z,13.56
2022-09-15T11:33:13.084Z,13.63
2022-09-15T11:35:46.108Z,13.53
2022-09-15T11:38:47.836Z,13.69
2022-09-15T11:41:19.951Z,13.66
2022-09-15T11:44:07.101Z,13.76
2022-09-15T11:46:52.370Z,13.61
2022-09-15T11:49:22.954Z,13.76
2022-09-15T11:51:56.241Z,13.79
2022-09-15T11:54:34.545Z,13.89
2022-09-15T11:57:01.009Z,13.81
2022-09-15T11:59:45.698Z,13.76
2022-09-15T12:02:40.222Z,13.71
2022-09-15T12:05:43.479Z,13.91
2022-09-15T12:08:47.812Z,14.02
2022-09-15T12:11:22.285Z,14.02
2022-09-15T12:13:49.441Z,14.27
2022-09-15T12:16:17.287Z,14.15
2022-09-15T12:18:51.625Z,14.25
2022-09-15T12:21:45.995Z,14.41
2022-09-15T12:24:31.124Z,14.32
2022-09-15T12:27:00.746Z,14.55
2022-09-15T12:29:27.126Z,14.81
2022-09-15T12:32:19.847Z,14.75
2022-09-15T12:34:58.413Z,14.75
2022-09-15T12:37:29.932Z,14.69
2022-09-15T12:39:56.412Z,14.69
2022-09-15T12:42:31.376Z,14.91
2022-09-15T12:45:19.603Z,14.86
2022-09-15T12:47:54.564Z,14.77
2022-09-15T12:50:36.157Z,14.85
2022-09-15T12:53:03.992Z,14.94
2022-09-15T12:55:35.260Z,15.01
2022-09-15T12:58:08.713Z,14.61
2022-09-15T13:00:45.544Z,14.61
2022-09-15T13:03:49.374Z,14.79
2022-09-15T13:06:18.101Z,15.08
2022-09-15T13:08:47.092Z,14.95
2022-09-15T13:11:38.630Z,15.10
2022-09-15T13:14:08.118Z,15.05
2022-09-15T13:16:46.577Z,15.03
2022-09-15T13:19:41.214Z,15.12
2022-09-15T13:22:10.557Z,15.04
2022-09-15T13:25:02.059Z,14.99
2022-09-15T13:27:40.433Z,15.05
2022-09-15T13:30:09.948Z,14.99
2022-09-15T13:32:46.445Z,15.19
2022-09-15T13:35:30.989Z,15.41
2022-09-15T13:38:17.094Z,15.57
2022-09-15T13:41:25.356Z,15.65
2022-09-15T13:44:29.137Z,15.71
2022-09-15T13:47:06.518Z,15.93
2022-09-15T13:49:54.845Z,15.58
2022-09-15T13:52:25.487Z,15.75
2022-09-15T13:55:36.683Z,15.86
2022-09-15T14:00:58.720Z,15.84
2022-09-15T14:03:39.581Z,15.71
2022-09-15T14:06:13.543Z,15.71
2022-09-15T14:08:42.827Z,15.63
2022-09-15T14:11:14.098Z,15.73
2022-09-15T14:13:48.948Z,16.04
2022-09-15T14:16:37.139Z,15.90
2022-09-15T14:19:21.391Z,15.91
2022-09-15T14:21:53.838Z,16.23
2022-09-15T14:24:29.008Z,17.07
2022-09-15T14:26:58.854Z,17.13
2022-09-15T14:29:26.826Z,17.35
2022-09-15T14:31:58.827Z,17.51
2022-09-15T14:34:29.918Z,17.67
2022-09-15T14:37:05.238Z,17.95
2022-09-15T14:39:33.501Z,17.85
2022-09-15T14:42:22.615Z,18.29
2022-09-15T14:47:40.386Z,18.00
2022-09-15T14:50:15.621Z,18.27
2022-09-15T14:52:42.176Z,18.10
2022-09-15T14:55:45.787Z,18.12
2022-09-15T14:58:35.065Z,18.64
2022-09-15T15:01:15.480Z,18.68
2022-09-15T15:03:58.296Z,18.68
2022-09-15T15:06:34.957Z,18.33
2022-09-15T15:09:13.605Z,18.31
2022-09-15T15:11:41.801Z,18.17
2022-09-15T15:14:11.350Z,19.15
2022-09-15T15:16:52.189Z,18.45
2022-09-15T15:19:38.011Z,18.64
2022-09-15T15:22:13.539Z,18.74
2022-09-15T15:24:43.137Z,19.44
2022-09-15T15:27:34.837Z,18.54
2022-09-15T15:30:31.956Z,18.29
2022-09-15T15:33:01.694Z,17.49
2022-09-15T15:35:29.941Z,17.43
2022-09-15T15:38:18.091Z,17.46
2022-09-15T15:40:45.639Z,17.07
2022-09-15T15:43:22.001Z,17.31
2022-09-15T15:45:58.592Z,16.88
2022-09-15T15:48:25.822Z,16.93
2022-09-15T15:50:52.262Z,16.95
2022-09-15T15:53:18.782Z,16.75
2022-09-15T15:55:45.565Z,16.69
2022-09-15T15:58:13.873Z,16.60
2022-09-15T16:01:00.749Z,16.52
2022-09-15T16:03:27.603Z,16.34
2022-09-15T16:05:58.118Z,16.42
2022-09-15T16:08:26.637Z,16.26
2022-09-15T16:10:55.131Z,16.17
2022-09-15T16:13:23.236Z,16.11
2022-09-15T16:15:50.040Z,16.13
2022-09-15T16:18:16.554Z,16.27
2022-09-15T16:20:43.414Z,16.12
2022-09-15T16:23:21.036Z,16.09
2022-09-15T16:25:54.198Z,16.09
2022-09-15T16:28:20.614Z,16.14
2022-09-15T16:30:47.297Z,16.06
2022-09-15T16:33:15.733Z,16.20
2022-09-15T16:35:45.907Z,16.27
2022-09-15T16:38:12.377Z,16.21
2022-09-15T16:40:38.797Z,16.18
2022-09-15T16:43:12.329Z,16.25
2022-09-15T16:45:40.819Z,16.22
2022-09-15T16:48:08.576Z,16.02
2022-09-15T16:50:35.226Z,16.09
2022-09-15T16:53:01.870Z,15.87
2022-09-15T16:55:37.198Z,15.72
2022-09-15T16:58:04.842Z,15.67
2022-09-15T17:00:33.664Z,15.67
2022-09-15T17:03:00.458Z,15.71
2022-09-15T17:05:48.728Z,15.65
2022-09-15T17:08:16.376Z,15.64
2022-09-15T17:10:43.782Z,15.66
2022-09-15T17:13:16.086Z,15.66
2022-09-15T17:15:42.810Z,15.73
2022-09-15T17:18:10.045Z,15.76
2022-09-15T17:20:39.364Z,15.70
2022-09-15T17:23:19.777Z,15.63
2022-09-15T17:25:51.883Z,15.43
2022-09-15T17:28:23.756Z,15.42
2022-09-15T17:30:52.366Z,15.48
2022-09-15T17:33:20.402Z,15.44
2022-09-15T17:35:47.667Z,15.36
2022-09-15T17:38:15.252Z,15.39
2022-09-15T17:40:42.367Z,15.37
2022-09-15T17:43:17.665Z,15.39
2022-09-15T17:45:44.492Z,15.19
2022-09-15T17:48:11.768Z,15.10
2022-09-15T17:50:39.806Z,15.10
2022-09-15T17:53:17.757Z,15.12
2022-09-15T17:55:44.397Z,15.09
2022-09-15T17:58:10.799Z,15.08
2022-09-15T18:00:40.076Z,14.91
2022-09-15T18:03:19.438Z,14.77
2022-09-15T18:05:46.391Z,14.59
2022-09-15T18:08:13.032Z,14.48
2022-09-15T18:10:39.481Z,14.41
2022-09-15T18:13:06.966Z,14.29
2022-09-15T18:15:35.232Z,14.34
2022-09-15T18:18:08.318Z,14.09
2022-09-15T18:20:36.569Z,14.14
2022-09-15T18:23:03.138Z,14.07
2022-09-15T18:25:32.733Z,14.03
2022-09-15T18:28:00.191Z,14.05
2022-09-15T18:30:29.470Z,14.00
2022-09-15T18:32:57.252Z,13.88
2022-09-15T18:35:24.245Z,13.78
2022-09-15T18:37:55.929Z,13.71
2022-09-15T18:40:23.358Z,13.65
2022-09-15T18:42:50.033Z,13.59
2022-09-15T18:45:18.036Z,13.46
2022-09-15T18:47:49.263Z,13.41
2022-09-15T18:50:17.470Z,13.34
2022-09-15T18:52:44.348Z,13.32
2022-09-15T18:55:17.022Z,13.27
2022-09-15T18:57:43.949Z,13.20
2022-09-15T19:00:13.798Z,13.10
2022-09-15T19:02:40.586Z,12.98
2022-09-15T19:05:08.231Z,12.91
2022-09-15T19:07:34.680Z,12.84
2022-09-15T19:10:01.597Z,12.76
2022-09-15T19:12:28.017Z,12.70
2022-09-15T19:14:54.476Z,12.55
2022-09-15T19:17:21.306Z,12.43
2022-09-15T19:19:47.736Z,12.42
2022-09-15T19:22:14.155Z,12.34
2022-09-15T19:24:40.570Z,12.28
2022-09-15T19:27:08.381Z,12.29
2022-09-15T19:29:36.457Z,12.21
2022-09-15T19:32:05.841Z,12.20
2022-09-15T19:34:32.674Z,12.19
2022-09-15T19:36:59.364Z,12.09
2022-09-15T19:39:25.977Z,12.01
2022-09-15T19:41:52.575Z,12.02
2022-09-15T19:44:19.090Z,12.12
2022-09-15T19:46:45.603Z,12.23
2022-09-15T19:49:12.865Z,12.32
2022-09-15T19:51:39.573Z,12.37
2022-09-15T19:54:06.798Z,12.46
2022-09-15T19:56:34.340Z,12.51
2022-09-15T19:59:01.030Z,12.58
2022-09-15T20:01:29.317Z,12.58
2022-09-15T20:03:56.913Z,12.49
2022-09-15T20:06:27.614Z,12.40
2022-09-15T20:08:59.983Z,12.35
2022-09-15T20:11:27.657Z,12.33
2022-09-15T20:13:54.972Z,12.21
2022-09-15T20:16:22.901Z,12.16
2022-09-15T20:18:51.459Z,12.09
2022-09-15T20:21:39.092Z,12.07
2022-09-15T20:24:12.736Z,12.03
2022-09-15T20:26:39.165Z,12.01
2022-09-15T20:29:05.542Z,12.00
2022-09-15T20:31:33.073Z,11.99
2022-09-15T20:34:01.509Z,12.07
2022-09-15T20:36:33.061Z,12.07
2022-09-15T20:39:00.153Z,12.05
2022-09-15T20:41:28.194Z,11.96
2022-09-15T20:43:55.536Z,11.91
2022-09-15T20:46:23.453Z,11.86
2022-09-15T20:48:51.346Z,11.88
2022-09-15T20:51:20.541Z,11.94
2022-09-15T20:53:49.035Z,11.92
2022-09-15T20:56:17.050Z,11.87
2022-09-15T20:58:43.677Z,11.84
2022-09-15T21:01:15.532Z,11.86
2022-09-15T21:03:44.149Z,11.86
2022-09-15T21:06:15.534Z,11.84
2022-09-15T21:08:42.195Z,11.83
2022-09-15T21:11:13.325Z,11.76
2022-09-15T21:13:41.277Z,11.71
2022-09-15T21:16:10.197Z,11.63
2022-09-15T21:18:39.007Z,11.59
2022-09-15T21:21:08.841Z,11.58
2022-09-15T21:23:37.929Z,11.57
2022-09-15T21:26:09.654Z,11.58
2022-09-15T21:28:36.226Z,11.58
2022-09-15T21:31:10.844Z,11.73
2022-09-15T21:33:38.094Z,11.80
2022-09-15T21:36:18.049Z,11.91
2022-09-15T21:38:44.733Z,11.97
2022-09-15T21:41:20.802Z,12.17
2022-09-15T21:43:48.266Z,12.10
2022-09-15T21:46:17.179Z,12.20
2022-09-15T21:48:45.067Z,12.20
2022-09-15T21:51:14.247Z,12.34
2022-09-15T21:53:42.245Z,12.34
2022-09-15T21:56:10.474Z,12.26
2022-09-15T21:58:42.691Z,12.20
2022-09-15T22:01:18.848Z,12.21
2022-09-15T22:03:52.827Z,12.40
2022-09-15T22:06:21.518Z,12.53
2022-09-15T22:08:48.253Z,12.58
2022-09-15T22:11:14.737Z,12.63
2022-09-15T22:13:43.466Z,12.73
2022-09-15T22:16:16.728Z,12.76
2022-09-15T22:18:43.880Z,12.90
2022-09-15T22:21:16.069Z,12.87
2022-09-15T22:23:43.548Z,12.90
2022-09-15T22:26:12.937Z,12.94
2022-09-15T22:28:39.794Z,12.99
2022-09-15T22:31:10.166Z,13.10
2022-09-15T22:33:37.642Z,13.21
2022-09-15T22:36:05.957Z,13.03
2022-09-15T22:38:32.370Z,13.01
2022-09-15T22:41:04.974Z,13.11
2022-09-15T22:43:31.551Z,13.01
2022-09-15T22:45:58.048Z,13.13
2022-09-15T22:48:24.583Z,13.26
2022-09-15T22:50:50.954Z,13.18
2022-09-15T22:53:17.376Z,13.16
2022-09-15T22:55:43.786Z,13.26
2022-09-15T22:58:10.388Z,13.31
2022-09-15T23:00:39.795Z,13.30
2022-09-15T23:03:06.874Z,13.45
2022-09-15T23:05:34.386Z,13.39
2022-09-15T23:08:00.978Z,13.41
2022-09-15T23:10:28.127Z,13.36
2022-09-15T23:12:54.521Z,13.36
2022-09-15T23:15:20.921Z,13.37
2022-09-15T23:17:47.361Z,13.11
2022-09-15T23:20:13.787Z,12.93
2022-09-15T23:22:40.197Z,13.01
2022-09-15T23:25:07.070Z,13.17
2022-09-15T23:27:33.558Z,13.16
2022-09-15T23:30:00.015Z,13.24
2022-09-15T23:32:26.433Z,13.23
2022-09-15T23:34:53.321Z,13.21
2022-09-15T23:37:19.747Z,13.27
2022-09-15T23:39:46.208Z,13.23
2022-09-15T23:42:16.764Z,13.25
2022-09-15T23:44:45.077Z,13.18
2022-09-15T23:47:11.449Z,13.15
2022-09-15T23:49:37.877Z,13.02
2022-09-15T23:52:04.280Z,12.95
2022-09-15T23:54:30.762Z,13.02
2022-09-15T23:56:57.224Z,12.88
2022-09-15T23:59:23.647Z,12.96
